Terminal Aerodrome Forecast
Issued by NWS

Home | Current Version | Previous Version | Text Only | Print | Product List | Glossary On
Versions: 1 2 3 4 5 6 7 8 9 10 11 12 13 14 15 16 17 18 19 20 21 22 23 24 25 26 27 28 29 30 31 32 33 34 35 36 37 38 39 40 41 42 43
108
FTAK31 PANC 261926 AAA
TAFAEN
TAF AMD
PAEN 261926Z 2619/2718 02005KT 1/2SM FZFG VV002
      TEMPO 2620/2622 P6SM NSW SCT002 BKN080
     FM262200 VRB04KT P6SM SCT100 BKN200
     FM270600 02005KT P6SM VCFG FEW003 BKN100=

USA.gov is the U.S. government's official web portal to all federal, state and local government web resources and services.